sensor_id;sensor_type;location;lat;lon;timestamp;temperature;humidity
17307;DHT22;8771;48.048;7.682;2022-12-16T00:02:09;1.90;83.30
17307;DHT22;8771;48.048;7.682;2022-12-16T00:07:11;1.90;83.30
17307;DHT22;8771;48.048;7.682;2022-12-16T00:12:13;1.90;83.30
17307;DHT22;8771;48.048;7.682;2022-12-16T00:17:16;1.90;83.30
17307;DHT22;8771;48.048;7.682;2022-12-16T00:22:18;1.90;83.30
17307;DHT22;8771;48.048;7.682;2022-12-16T00:27:20;1.80;83.20
17307;DHT22;8771;48.048;7.682;2022-12-16T00:32:23;1.70;83.30
17307;DHT22;8771;48.048;7.682;2022-12-16T00:37:25;1.80;83.40
17307;DHT22;8771;48.048;7.682;2022-12-16T00:42:27;1.70;83.30
17307;DHT22;8771;48.048;7.682;2022-12-16T00:47:31;1.60;83.30
17307;DHT22;8771;48.048;7.682;2022-12-16T00:52:33;1.50;83.50
17307;DHT22;8771;48.048;7.682;2022-12-16T00:57:35;1.60;83.50
17307;DHT22;8771;48.048;7.682;2022-12-16T01:02:38;1.60;83.50
17307;DHT22;8771;48.048;7.682;2022-12-16T01:07:41;1.60;83.40
17307;DHT22;8771;48.048;7.682;2022-12-16T01:12:43;1.70;83.50
17307;DHT22;8771;48.048;7.682;2022-12-16T01:17:46;1.70;83.30
17307;DHT22;8771;48.048;7.682;2022-12-16T01:22:49;1.70;83.20
17307;DHT22;8771;48.048;7.682;2022-12-16T01:27:51;1.80;83.20
17307;DHT22;8771;48.048;7.682;2022-12-16T01:32:54;1.80;83.20
17307;DHT22;8771;48.048;7.682;2022-12-16T01:37:56;1.80;83.10
17307;DHT22;8771;48.048;7.682;2022-12-16T01:42:58;1.80;83.00
17307;DHT22;8771;48.048;7.682;2022-12-16T01:48:06;1.70;83.10
17307;DHT22;8771;48.048;7.682;2022-12-16T01:53:12;1.70;83.20
17307;DHT22;8771;48.048;7.682;2022-12-16T01:58:18;1.50;83.20
17307;DHT22;8771;48.048;7.682;2022-12-16T02:03:23;1.40;83.30
17307;DHT22;8771;48.048;7.682;2022-12-16T02:08:26;1.30;83.40
17307;DHT22;8771;48.048;7.682;2022-12-16T02:13:35;1.30;83.50
17307;DHT22;8771;48.048;7.682;2022-12-16T02:18:45;1.40;83.50
17307;DHT22;8771;48.048;7.682;2022-12-16T02:29:35;1.50;83.30
17307;DHT22;8771;48.048;7.682;2022-12-16T02:34:48;1.60;83.30
17307;DHT22;8771;48.048;7.682;2022-12-16T02:39:55;1.50;83.20
17307;DHT22;8771;48.048;7.682;2022-12-16T02:45:03;1.50;83.20
17307;DHT22;8771;48.048;7.682;2022-12-16T02:50:16;1.50;83.20
17307;DHT22;8771;48.048;7.682;2022-12-16T02:55:19;1.40;84.00
17307;DHT22;8771;48.048;7.682;2022-12-16T03:00:25;1.40;83.30
17307;DHT22;8771;48.048;7.682;2022-12-16T03:05:32;1.40;83.30
17307;DHT22;8771;48.048;7.682;2022-12-16T03:10:39;1.40;83.30
17307;DHT22;8771;48.048;7.682;2022-12-16T03:15:43;1.40;84.00
17307;DHT22;8771;48.048;7.682;2022-12-16T03:20:49;1.40;83.20
17307;DHT22;8771;48.048;7.682;2022-12-16T03:25:58;1.40;83.20
17307;DHT22;8771;48.048;7.682;2022-12-16T03:31:09;1.40;83.30
17307;DHT22;8771;48.048;7.682;2022-12-16T03:36:20;1.50;83.30
17307;DHT22;8771;48.048;7.682;2022-12-16T03:41:22;1.60;83.30
17307;DHT22;8771;48.048;7.682;2022-12-16T03:46:25;1.60;83.20
17307;DHT22;8771;48.048;7.682;2022-12-16T03:51:29;1.70;83.20
17307;DHT22;8771;48.048;7.682;2022-12-16T03:56:31;1.70;83.10
17307;DHT22;8771;48.048;7.682;2022-12-16T04:01:33;1.70;83.00
17307;DHT22;8771;48.048;7.682;2022-12-16T04:06:41;1.70;82.90
17307;DHT22;8771;48.048;7.682;2022-12-16T04:11:43;1.70;83.20
17307;DHT22;8771;48.048;7.682;2022-12-16T04:17:02;1.80;83.20
17307;DHT22;8771;48.048;7.682;2022-12-16T04:22:25;1.80;83.00
17307;DHT22;8771;48.048;7.682;2022-12-16T04:27:45;1.90;83.00
17307;DHT22;8771;48.048;7.682;2022-12-16T04:32:54;1.90;82.90
17307;DHT22;8771;48.048;7.682;2022-12-16T04:38:15;1.90;82.90
17307;DHT22;8771;48.048;7.682;2022-12-16T04:43:35;2.00;82.90
17307;DHT22;8771;48.048;7.682;2022-12-16T04:48:54;1.90;82.90
17307;DHT22;8771;48.048;7.682;2022-12-16T04:54:15;1.90;82.90
17307;DHT22;8771;48.048;7.682;2022-12-16T04:59:34;1.90;82.90
17307;DHT22;8771;48.048;7.682;2022-12-16T05:04:54;1.90;82.90
17307;DHT22;8771;48.048;7.682;2022-12-16T05:10:18;1.90;83.00
17307;DHT22;8771;48.048;7.682;2022-12-16T05:15:37;1.90;83.00
17307;DHT22;8771;48.048;7.682;2022-12-16T05:20:56;1.80;83.00
17307;DHT22;8771;48.048;7.682;2022-12-16T05:26:17;1.70;83.00
17307;DHT22;8771;48.048;7.682;2022-12-16T05:31:36;1.60;83.20
17307;DHT22;8771;48.048;7.682;2022-12-16T05:36:56;1.50;83.40
17307;DHT22;8771;48.048;7.682;2022-12-16T05:42:17;1.60;83.40
17307;DHT22;8771;48.048;7.682;2022-12-16T05:47:36;1.60;83.20
17307;DHT22;8771;48.048;7.682;2022-12-16T05:52:56;1.70;83.20
17307;DHT22;8771;48.048;7.682;2022-12-16T05:58:17;1.70;83.10
17307;DHT22;8771;48.048;7.682;2022-12-16T06:03:36;1.70;83.00
17307;DHT22;8771;48.048;7.682;2022-12-16T06:08:56;1.80;83.80
17307;DHT22;8771;48.048;7.682;2022-12-16T06:14:17;1.80;83.00
17307;DHT22;8771;48.048;7.682;2022-12-16T06:19:38;1.80;82.90
17307;DHT22;8771;48.048;7.682;2022-12-16T06:24:58;1.80;83.00
17307;DHT22;8771;48.048;7.682;2022-12-16T06:30:30;1.80;83.00
17307;DHT22;8771;48.048;7.682;2022-12-16T06:35:50;1.80;83.20
17307;DHT22;8771;48.048;7.682;2022-12-16T06:41:09;1.70;83.20
17307;DHT22;8771;48.048;7.682;2022-12-16T06:46:30;1.70;83.20
17307;DHT22;8771;48.048;7.682;2022-12-16T06:51:50;1.70;83.00
17307;DHT22;8771;48.048;7.682;2022-12-16T06:57:10;1.70;83.20
17307;DHT22;8771;48.048;7.682;2022-12-16T07:02:30;1.80;83.20
17307;DHT22;8771;48.048;7.682;2022-12-16T07:07:50;1.70;83.00
17307;DHT22;8771;48.048;7.682;2022-12-16T07:13:10;1.80;83.20
17307;DHT22;8771;48.048;7.682;2022-12-16T07:18:31;1.70;83.00
17307;DHT22;8771;48.048;7.682;2022-12-16T07:23:51;1.80;83.10
17307;DHT22;8771;48.048;7.682;2022-12-16T07:29:10;1.70;83.00
17307;DHT22;8771;48.048;7.682;2022-12-16T07:34:31;1.70;83.00
17307;DHT22;8771;48.048;7.682;2022-12-16T07:39:50;1.60;83.20
17307;DHT22;8771;48.048;7.682;2022-12-16T07:45:10;1.70;83.20
17307;DHT22;8771;48.048;7.682;2022-12-16T07:50:30;1.70;83.00
17307;DHT22;8771;48.048;7.682;2022-12-16T07:55:50;1.70;83.10
17307;DHT22;8771;48.048;7.682;2022-12-16T08:01:09;1.80;83.00
17307;DHT22;8771;48.048;7.682;2022-12-16T08:06:30;1.90;83.00
17307;DHT22;8771;48.048;7.682;2022-12-16T08:11:50;1.90;82.80
17307;DHT22;8771;48.048;7.682;2022-12-16T08:17:09;2.00;82.70
17307;DHT22;8771;48.048;7.682;2022-12-16T08:22:30;2.10;82.70
17307;DHT22;8771;48.048;7.682;2022-12-16T08:27:53;2.10;82.50
17307;DHT22;8771;48.048;7.682;2022-12-16T08:33:13;2.10;82.50
17307;DHT22;8771;48.048;7.682;2022-12-16T08:38:33;1.90;82.60
17307;DHT22;8771;48.048;7.682;2022-12-16T08:43:52;1.80;82.80
17307;DHT22;8771;48.048;7.682;2022-12-16T08:49:12;1.70;82.90
17307;DHT22;8771;48.048;7.682;2022-12-16T08:54:33;1.70;82.90
17307;DHT22;8771;48.048;7.682;2022-12-16T08:59:52;1.60;82.90
17307;DHT22;8771;48.048;7.682;2022-12-16T09:05:12;1.60;82.90
17307;DHT22;8771;48.048;7.682;2022-12-16T09:10:33;1.70;83.00
17307;DHT22;8771;48.048;7.682;2022-12-16T09:15:52;1.80;82.90
17307;DHT22;8771;48.048;7.682;2022-12-16T09:21:12;1.80;82.70
17307;DHT22;8771;48.048;7.682;2022-12-16T09:26:29;1.90;82.70
17307;DHT22;8771;48.048;7.682;2022-12-16T09:31:49;1.90;82.60
17307;DHT22;8771;48.048;7.682;2022-12-16T09:37:09;1.90;82.60
17307;DHT22;8771;48.048;7.682;2022-12-16T09:42:41;1.90;82.60
17307;DHT22;8771;48.048;7.682;2022-12-16T09:48:07;1.80;82.60
17307;DHT22;8771;48.048;7.682;2022-12-16T09:53:33;1.70;82.90
17307;DHT22;8771;48.048;7.682;2022-12-16T09:58:58;1.60;83.00
17307;DHT22;8771;48.048;7.682;2022-12-16T10:04:19;1.60;83.00
17307;DHT22;8771;48.048;7.682;2022-12-16T10:09:46;1.60;82.90
17307;DHT22;8771;48.048;7.682;2022-12-16T10:15:16;1.70;82.80
17307;DHT22;8771;48.048;7.682;2022-12-16T10:20:41;1.90;82.50
17307;DHT22;8771;48.048;7.682;2022-12-16T10:26:07;2.00;82.40
17307;DHT22;8771;48.048;7.682;2022-12-16T10:31:31;2.00;82.40
17307;DHT22;8771;48.048;7.682;2022-12-16T10:36:51;2.00;82.30
17307;DHT22;8771;48.048;7.682;2022-12-16T10:42:18;2.20;82.10
17307;DHT22;8771;48.048;7.682;2022-12-16T10:47:40;2.20;81.80
17307;DHT22;8771;48.048;7.682;2022-12-16T10:53:01;2.30;81.80
17307;DHT22;8771;48.048;7.682;2022-12-16T10:58:24;2.40;81.70
17307;DHT22;8771;48.048;7.682;2022-12-16T11:03:49;2.50;81.60
17307;DHT22;8771;48.048;7.682;2022-12-16T11:09:30;2.60;81.50
17307;DHT22;8771;48.048;7.682;2022-12-16T11:14:51;2.70;81.40
17307;DHT22;8771;48.048;7.682;2022-12-16T11:20:15;2.90;81.30
17307;DHT22;8771;48.048;7.682;2022-12-16T11:25:35;3.00;81.30
17307;DHT22;8771;48.048;7.682;2022-12-16T11:30:57;3.10;81.20
17307;DHT22;8771;48.048;7.682;2022-12-16T11:36:21;3.20;81.20
17307;DHT22;8771;48.048;7.682;2022-12-16T11:41:43;3.40;81.10
17307;DHT22;8771;48.048;7.682;2022-12-16T11:47:17;3.50;81.00
17307;DHT22;8771;48.048;7.682;2022-12-16T11:52:41;3.60;81.00
17307;DHT22;8771;48.048;7.682;2022-12-16T11:58:08;3.60;80.90
17307;DHT22;8771;48.048;7.682;2022-12-16T12:03:33;3.70;80.90
17307;DHT22;8771;48.048;7.682;2022-12-16T12:09:02;3.80;81.00
17307;DHT22;8771;48.048;7.682;2022-12-16T12:14:32;3.80;81.00
17307;DHT22;8771;48.048;7.682;2022-12-16T12:20:03;3.90;80.90
17307;DHT22;8771;48.048;7.682;2022-12-16T12:25:33;3.80;80.90
17307;DHT22;8771;48.048;7.682;2022-12-16T12:31:03;3.50;80.90
17307;DHT22;8771;48.048;7.682;2022-12-16T12:36:31;2.90;81.30
17307;DHT22;8771;48.048;7.682;2022-12-16T12:42:04;2.60;82.00
17307;DHT22;8771;48.048;7.682;2022-12-16T12:47:29;2.30;82.00
17307;DHT22;8771;48.048;7.682;2022-12-16T12:53:03;2.20;82.10
17307;DHT22;8771;48.048;7.682;2022-12-16T12:58:29;2.30;81.90
17307;DHT22;8771;48.048;7.682;2022-12-16T13:03:56;2.60;81.60
17307;DHT22;8771;48.048;7.682;2022-12-16T13:09:24;2.70;81.20
17307;DHT22;8771;48.048;7.682;2022-12-16T13:15:02;2.80;81.10
17307;DHT22;8771;48.048;7.682;2022-12-16T13:20:36;2.90;81.10
17307;DHT22;8771;48.048;7.682;2022-12-16T13:26:03;2.90;81.00
17307;DHT22;8771;48.048;7.682;2022-12-16T13:31:58;2.90;80.90
17307;DHT22;8771;48.048;7.682;2022-12-16T13:37:22;2.90;81.00
17307;DHT22;8771;48.048;7.682;2022-12-16T13:42:51;2.90;81.10
17307;DHT22;8771;48.048;7.682;2022-12-16T13:48:32;2.80;81.10
17307;DHT22;8771;48.048;7.682;2022-12-16T13:53:53;2.80;81.10
17307;DHT22;8771;48.048;7.682;2022-12-16T13:59:16;2.80;81.00
17307;DHT22;8771;48.048;7.682;2022-12-16T14:04:39;2.60;81.00
17307;DHT22;8771;48.048;7.682;2022-12-16T14:10:02;2.50;81.20
17307;DHT22;8771;48.048;7.682;2022-12-16T14:15:25;2.40;81.60
17307;DHT22;8771;48.048;7.682;2022-12-16T14:20:53;2.60;81.60
17307;DHT22;8771;48.048;7.682;2022-12-16T14:26:14;2.60;81.20
17307;DHT22;8771;48.048;7.682;2022-12-16T14:31:35;2.30;81.10
17307;DHT22;8771;48.048;7.682;2022-12-16T14:36:57;2.10;81.40
17307;DHT22;8771;48.048;7.682;2022-12-16T14:42:19;1.90;81.60
17307;DHT22;8771;48.048;7.682;2022-12-16T14:47:40;1.90;81.90
17307;DHT22;8771;48.048;7.682;2022-12-16T14:53:13;1.90;81.90
17307;DHT22;8771;48.048;7.682;2022-12-16T14:58:33;2.00;81.90
17307;DHT22;8771;48.048;7.682;2022-12-16T15:03:52;1.90;81.80
17307;DHT22;8771;48.048;7.682;2022-12-16T15:09:19;1.90;81.80
17307;DHT22;8771;48.048;7.682;2022-12-16T15:14:40;1.70;81.90
17307;DHT22;8771;48.048;7.682;2022-12-16T15:20:00;1.60;82.10
17307;DHT22;8771;48.048;7.682;2022-12-16T15:25:22;1.50;82.20
17307;DHT22;8771;48.048;7.682;2022-12-16T15:30:44;1.50;82.30
17307;DHT22;8771;48.048;7.682;2022-12-16T15:36:05;1.40;82.30
17307;DHT22;8771;48.048;7.682;2022-12-16T15:41:30;1.30;82.40
17307;DHT22;8771;48.048;7.682;2022-12-16T15:46:50;1.20;82.40
17307;DHT22;8771;48.048;7.682;2022-12-16T15:52:28;1.20;82.50
17307;DHT22;8771;48.048;7.682;2022-12-16T15:57:55;1.10;82.50
17307;DHT22;8771;48.048;7.682;2022-12-16T16:03:24;1.00;82.60
17307;DHT22;8771;48.048;7.682;2022-12-16T16:08:44;0.90;82.60
17307;DHT22;8771;48.048;7.682;2022-12-16T16:14:09;0.80;82.60
17307;DHT22;8771;48.048;7.682;2022-12-16T16:19:28;0.70;82.80
17307;DHT22;8771;48.048;7.682;2022-12-16T16:24:49;0.60;82.80
17307;DHT22;8771;48.048;7.682;2022-12-16T16:30:11;0.60;82.80
17307;DHT22;8771;48.048;7.682;2022-12-16T16:35:32;0.60;82.80
17307;DHT22;8771;48.048;7.682;2022-12-16T16:40:51;0.60;82.80
17307;DHT22;8771;48.048;7.682;2022-12-16T16:46:26;0.60;82.70
17307;DHT22;8771;48.048;7.682;2022-12-16T16:51:48;0.70;82.60
17307;DHT22;8771;48.048;7.682;2022-12-16T16:57:09;0.70;82.40
17307;DHT22;8771;48.048;7.682;2022-12-16T17:02:30;0.80;82.40
17307;DHT22;8771;48.048;7.682;2022-12-16T17:07:49;0.70;82.20
17307;DHT22;8771;48.048;7.682;2022-12-16T17:13:08;0.80;82.30
17307;DHT22;8771;48.048;7.682;2022-12-16T17:18:30;0.80;82.20
17307;DHT22;8771;48.048;7.682;2022-12-16T17:23:49;0.80;82.20
17307;DHT22;8771;48.048;7.682;2022-12-16T17:29:14;0.80;82.20
17307;DHT22;8771;48.048;7.682;2022-12-16T17:34:37;0.80;82.20
17307;DHT22;8771;48.048;7.682;2022-12-16T17:39:56;0.70;82.20
17307;DHT22;8771;48.048;7.682;2022-12-16T17:51:14;0.70;82.20
17307;DHT22;8771;48.048;7.682;2022-12-16T17:56:33;0.70;82.20
17307;DHT22;8771;48.048;7.682;2022-12-16T18:01:53;0.70;82.20
17307;DHT22;8771;48.048;7.682;2022-12-16T18:07:13;0.60;82.20
17307;DHT22;8771;48.048;7.682;2022-12-16T18:12:33;0.60;82.30
17307;DHT22;8771;48.048;7.682;2022-12-16T18:17:53;0.60;82.30
17307;DHT22;8771;48.048;7.682;2022-12-16T18:23:13;0.60;82.30
17307;DHT22;8771;48.048;7.682;2022-12-16T18:28:33;0.60;82.40
17307;DHT22;8771;48.048;7.682;2022-12-16T18:33:52;0.50;82.30
17307;DHT22;8771;48.048;7.682;2022-12-16T18:39:13;0.50;82.40
17307;DHT22;8771;48.048;7.682;2022-12-16T18:44:32;0.50;82.30
17307;DHT22;8771;48.048;7.682;2022-12-16T18:49:52;0.60;82.30
17307;DHT22;8771;48.048;7.682;2022-12-16T18:55:12;0.50;82.30
17307;DHT22;8771;48.048;7.682;2022-12-16T19:00:32;0.50;82.30
17307;DHT22;8771;48.048;7.682;2022-12-16T19:05:55;0.50;82.20
17307;DHT22;8771;48.048;7.682;2022-12-16T19:11:21;0.50;82.30
17307;DHT22;8771;48.048;7.682;2022-12-16T19:16:40;0.40;82.20
17307;DHT22;8771;48.048;7.682;2022-12-16T19:22:00;0.40;82.30
17307;DHT22;8771;48.048;7.682;2022-12-16T19:27:21;0.30;82.20
17307;DHT22;8771;48.048;7.682;2022-12-16T19:32:40;0.30;82.30
17307;DHT22;8771;48.048;7.682;2022-12-16T19:37:59;0.20;82.40
17307;DHT22;8771;48.048;7.682;2022-12-16T19:43:20;0.00;82.50
17307;DHT22;8771;48.048;7.682;2022-12-16T19:48:40;-0.10;82.60
17307;DHT22;8771;48.048;7.682;2022-12-16T19:54:00;-0.20;82.70
17307;DHT22;8771;48.048;7.682;2022-12-16T19:59:20;-0.30;82.70
17307;DHT22;8771;48.048;7.682;2022-12-16T20:04:40;-0.40;82.90
17307;DHT22;8771;48.048;7.682;2022-12-16T20:09:59;-0.50;82.90
17307;DHT22;8771;48.048;7.682;2022-12-16T20:15:20;-0.50;82.90
17307;DHT22;8771;48.048;7.682;2022-12-16T20:20:39;-0.50;82.80
17307;DHT22;8771;48.048;7.682;2022-12-16T20:26:00;-0.50;82.90
17307;DHT22;8771;48.048;7.682;2022-12-16T20:31:21;-0.50;82.90
17307;DHT22;8771;48.048;7.682;2022-12-16T20:36:41;-0.50;82.70
17307;DHT22;8771;48.048;7.682;2022-12-16T20:42:00;-0.50;82.60
17307;DHT22;8771;48.048;7.682;2022-12-16T20:47:21;-0.40;82.50
17307;DHT22;8771;48.048;7.682;2022-12-16T20:52:41;-0.40;82.50
17307;DHT22;8771;48.048;7.682;2022-12-16T20:58:00;-0.40;82.40
17307;DHT22;8771;48.048;7.682;2022-12-16T21:03:21;-0.40;82.30
17307;DHT22;8771;48.048;7.682;2022-12-16T21:08:41;-0.40;82.30
17307;DHT22;8771;48.048;7.682;2022-12-16T21:14:00;-0.40;82.40
17307;DHT22;8771;48.048;7.682;2022-12-16T21:19:21;-0.40;82.40
17307;DHT22;8771;48.048;7.682;2022-12-16T21:24:41;-0.40;82.50
17307;DHT22;8771;48.048;7.682;2022-12-16T21:30:00;-0.40;82.40
17307;DHT22;8771;48.048;7.682;2022-12-16T21:35:21;-0.40;82.40
17307;DHT22;8771;48.048;7.682;2022-12-16T21:40:40;-0.50;82.50
17307;DHT22;8771;48.048;7.682;2022-12-16T21:46:05;-0.60;82.50
17307;DHT22;8771;48.048;7.682;2022-12-16T21:51:26;-0.50;82.60
17307;DHT22;8771;48.048;7.682;2022-12-16T21:56:45;-0.50;82.50
17307;DHT22;8771;48.048;7.682;2022-12-16T22:02:01;-0.60;82.40
17307;DHT22;8771;48.048;7.682;2022-12-16T22:07:22;-0.60;82.50
17307;DHT22;8771;48.048;7.682;2022-12-16T22:12:41;-0.60;82.50
17307;DHT22;8771;48.048;7.682;2022-12-16T22:18:01;-0.70;82.40
17307;DHT22;8771;48.048;7.682;2022-12-16T22:23:26;-0.70;82.50
17307;DHT22;8771;48.048;7.682;2022-12-16T22:28:46;-0.70;82.50
17307;DHT22;8771;48.048;7.682;2022-12-16T22:34:05;-0.70;83.20
17307;DHT22;8771;48.048;7.682;2022-12-16T22:39:26;-0.70;82.30
17307;DHT22;8771;48.048;7.682;2022-12-16T22:44:46;-0.70;82.20
17307;DHT22;8771;48.048;7.682;2022-12-16T22:50:06;-0.60;82.20
17307;DHT22;8771;48.048;7.682;2022-12-16T22:55:27;-0.60;82.20
17307;DHT22;8771;48.048;7.682;2022-12-16T23:00:46;-0.60;82.20
17307;DHT22;8771;48.048;7.682;2022-12-16T23:06:09;-0.50;82.10
17307;DHT22;8771;48.048;7.682;2022-12-16T23:11:34;-0.50;82.10
17307;DHT22;8771;48.048;7.682;2022-12-16T23:16:54;-0.40;82.10
17307;DHT22;8771;48.048;7.682;2022-12-16T23:22:14;-0.40;82.10
17307;DHT22;8771;48.048;7.682;2022-12-16T23:27:34;-0.40;82.10
17307;DHT22;8771;48.048;7.682;2022-12-16T23:32:57;-0.40;82.10
17307;DHT22;8771;48.048;7.682;2022-12-16T23:38:16;-0.40;82.10
17307;DHT22;8771;48.048;7.682;2022-12-16T23:43:37;-0.40;82.10
17307;DHT22;8771;48.048;7.682;2022-12-16T23:48:57;-0.40;82.20
17307;DHT22;8771;48.048;7.682;2022-12-16T23:54:17;-0.60;82.20
17307;DHT22;8771;48.048;7.682;2022-12-16T23:59:38;-0.70;82.50
